PIA017 OPIS-OPQT
Flight info
| Callsign | PIA017 |
|---|---|
| Flight time | N/A |
| Altitude | 38000 |
| Route | KALMI J143 NONIB J139 ZB J134 KADLA |
| Aircraft | A20N/M-SDE2E3FGHIRWXY/LB1 |
Departure
| Time | 2026-04-24 14:12 |
|---|---|
| Airport | Islamabad International Airport (OPIS) |
Arrival
| Time | N/A |
|---|---|
| Airport | Quetta International Airport (OPQT) |
| Time | Latitude | Longitude | Altitude | Speed | Heading |
|---|---|---|---|---|---|
| 2026-04-24 13:45 | 33.55455 | 72.83253 | 1770 ft | 0 kts | 357° |
| 2026-04-24 13:58 | 33.55452 | 72.83253 | 1765 ft | 1 kts | 356° |
| 2026-04-24 13:58 | 33.55444 | 72.83254 | 1769 ft | 1 kts | 349° |
| 2026-04-24 13:58 | 33.55436 | 72.83256 | 1770 ft | 1 kts | 341° |
| 2026-04-24 13:59 | 33.55429 | 72.83260 | 1768 ft | 1 kts | 333° |
| 2026-04-24 13:59 | 33.55421 | 72.83264 | 1768 ft | 1 kts | 325° |
| 2026-04-24 13:59 | 33.55415 | 72.83270 | 1768 ft | 1 kts | 317° |
| 2026-04-24 13:59 | 33.55409 | 72.83277 | 1767 ft | 1 kts | 309° |
| 2026-04-24 14:00 | 33.55404 | 72.83284 | 1770 ft | 1 kts | 301° |
| 2026-04-24 14:00 | 33.55400 | 72.83293 | 1765 ft | 1 kts | 293° |
| 2026-04-24 14:00 | 33.55397 | 72.83302 | 1770 ft | 1 kts | 285° |
| 2026-04-24 14:00 | 33.55395 | 72.83311 | 1769 ft | 1 kts | 277° |
| 2026-04-24 14:01 | 33.55394 | 72.83321 | 1767 ft | 1 kts | 269° |
| 2026-04-24 14:01 | 33.55394 | 72.83324 | 1767 ft | 0 kts | 267° |
| 2026-04-24 14:02 | 33.55394 | 72.83323 | 1767 ft | 0 kts | 265° |
| 2026-04-24 14:02 | 33.55391 | 72.83322 | 1767 ft | 0 kts | 233° |
| 2026-04-24 14:03 | 33.55369 | 72.83294 | 1766 ft | 8 kts | 226° |
| 2026-04-24 14:03 | 33.55331 | 72.83239 | 1768 ft | 9 kts | 233° |
| 2026-04-24 14:03 | 33.55295 | 72.83183 | 1770 ft | 8 kts | 232° |
| 2026-04-24 14:03 | 33.55260 | 72.83131 | 1767 ft | 8 kts | 230° |
| 2026-04-24 14:04 | 33.55231 | 72.83081 | 1765 ft | 7 kts | 238° |
| 2026-04-24 14:04 | 33.55207 | 72.83033 | 1767 ft | 6 kts | 238° |
| 2026-04-24 14:04 | 33.55181 | 72.83000 | 1769 ft | 5 kts | 201° |
| 2026-04-24 14:04 | 33.55126 | 72.83035 | 1766 ft | 12 kts | 114° |
| 2026-04-24 14:05 | 33.55110 | 72.83138 | 1765 ft | 13 kts | 99° |
| 2026-04-24 14:05 | 33.55091 | 72.83255 | 1770 ft | 20 kts | 102° |
| 2026-04-24 14:05 | 33.55063 | 72.83431 | 1768 ft | 22 kts | 97° |
| 2026-04-24 14:05 | 33.55034 | 72.83615 | 1769 ft | 23 kts | 100° |
| 2026-04-24 14:06 | 33.55004 | 72.83805 | 1769 ft | 24 kts | 99° |
| 2026-04-24 14:06 | 33.54976 | 72.84003 | 1768 ft | 25 kts | 99° |
| 2026-04-24 14:06 | 33.54941 | 72.84185 | 1769 ft | 18 kts | 102° |
| 2026-04-24 14:06 | 33.54920 | 72.84326 | 1772 ft | 16 kts | 99° |
| 2026-04-24 14:07 | 33.54901 | 72.84465 | 1770 ft | 15 kts | 99° |
| 2026-04-24 14:07 | 33.54885 | 72.84520 | 1771 ft | 6 kts | 122° |
| 2026-04-24 14:07 | 33.54852 | 72.84543 | 1773 ft | 5 kts | 174° |
| 2026-04-24 14:07 | 33.54815 | 72.84535 | 1772 ft | 6 kts | 194° |
| 2026-04-24 14:08 | 33.54798 | 72.84530 | 1770 ft | 0 kts | 193° |
| 2026-04-24 14:09 | 33.54783 | 72.84526 | 1772 ft | 5 kts | 193° |
| 2026-04-24 14:09 | 33.54730 | 72.84503 | 1768 ft | 10 kts | 225° |
| 2026-04-24 14:09 | 33.54713 | 72.84418 | 1770 ft | 11 kts | 281° |
| 2026-04-24 14:09 | 33.54723 | 72.84358 | 1771 ft | 0 kts | 281° |
| 2026-04-24 14:11 | 33.54731 | 72.84310 | 1769 ft | 29 kts | 281° |
| 2026-04-24 14:11 | 33.54813 | 72.83795 | 1771 ft | 93 kts | 280° |
| 2026-04-24 14:11 | 33.55137 | 72.81575 | 2133 ft | 152 kts | 282° |
| 2026-04-24 14:12 | 33.55261 | 72.80333 | 2722 ft | 151 kts | 279° |
| 2026-04-24 14:12 | 33.55332 | 72.79048 | 3161 ft | 157 kts | 279° |
| 2026-04-24 14:12 | 33.55445 | 72.78143 | 3368 ft | 167 kts | 286° |
| 2026-04-24 14:12 | 33.55750 | 72.76733 | 3735 ft | 183 kts | 288° |
| 2026-04-24 14:13 | 33.56091 | 72.75172 | 3992 ft | 206 kts | 287° |
| 2026-04-24 14:13 | 33.56359 | 72.73382 | 4188 ft | 233 kts | 270° |
| 2026-04-24 14:13 | 33.55957 | 72.71436 | 4492 ft | 257 kts | 250° |
| 2026-04-24 14:13 | 33.55273 | 72.69357 | 4913 ft | 275 kts | 253° |
| 2026-04-24 14:14 | 33.54805 | 72.67126 | 5745 ft | 276 kts | 261° |
| 2026-04-24 14:14 | 33.54579 | 72.64842 | 6621 ft | 277 kts | 266° |
| 2026-04-24 14:14 | 33.54509 | 72.60278 | 8391 ft | 275 kts | 270° |
| 2026-04-24 14:15 | 33.54537 | 72.57990 | 9290 ft | 275 kts | 271° |
| 2026-04-24 14:15 | 33.54517 | 72.55656 | 10109 ft | 277 kts | 262° |
| 2026-04-24 14:15 | 33.53874 | 72.53450 | 10493 ft | 297 kts | 240° |
| 2026-04-24 14:15 | 33.52592 | 72.51385 | 10727 ft | 321 kts | 231° |
| 2026-04-24 14:16 | 33.51071 | 72.49353 | 11217 ft | 331 kts | 229° |
| 2026-04-24 14:16 | 33.49526 | 72.47302 | 12054 ft | 331 kts | 230° |
| 2026-04-24 14:16 | 33.48015 | 72.45220 | 12853 ft | 332 kts | 231° |
| 2026-04-24 14:17 | 33.45035 | 72.40932 | 14218 ft | 340 kts | 232° |
| 2026-04-24 14:17 | 33.43525 | 72.38721 | 14867 ft | 343 kts | 232° |
| 2026-04-24 14:17 | 33.40470 | 72.34240 | 16145 ft | 351 kts | 232° |
| 2026-04-24 14:18 | 33.38912 | 72.31960 | 16786 ft | 355 kts | 232° |
| 2026-04-24 14:18 | 33.37341 | 72.29662 | 17402 ft | 358 kts | 232° |
| 2026-04-24 14:18 | 33.35754 | 72.27345 | 18004 ft | 362 kts | 232° |
| 2026-04-24 14:18 | 33.34150 | 72.25003 | 18556 ft | 365 kts | 232° |
| 2026-04-24 14:19 | 33.32541 | 72.22656 | 19172 ft | 366 kts | 232° |
| 2026-04-24 14:19 | 33.30923 | 72.20297 | 19711 ft | 369 kts | 232° |
| 2026-04-24 14:19 | 33.29288 | 72.17915 | 20263 ft | 371 kts | 232° |
| 2026-04-24 14:19 | 33.27646 | 72.15524 | 20821 ft | 373 kts | 232° |
| 2026-04-24 14:20 | 33.26019 | 72.13157 | 21363 ft | 376 kts | 232° |
| 2026-04-24 14:20 | 33.24322 | 72.10690 | 21911 ft | 379 kts | 232° |
| 2026-04-24 14:20 | 33.22666 | 72.08285 | 22438 ft | 381 kts | 232° |
| 2026-04-24 14:20 | 33.20975 | 72.05831 | 22979 ft | 384 kts | 232° |
| 2026-04-24 14:21 | 33.19255 | 72.03335 | 23502 ft | 386 kts | 232° |
| 2026-04-24 14:21 | 33.17559 | 72.00876 | 23957 ft | 389 kts | 232° |
| 2026-04-24 14:21 | 33.15841 | 71.98386 | 24416 ft | 391 kts | 232° |
| 2026-04-24 14:21 | 33.14108 | 71.95877 | 24872 ft | 393 kts | 232° |
| 2026-04-24 14:22 | 33.12359 | 71.93347 | 25281 ft | 396 kts | 233° |
| 2026-04-24 14:22 | 33.10600 | 71.90804 | 25735 ft | 397 kts | 233° |
| 2026-04-24 14:22 | 33.07167 | 71.85857 | 25819 ft | 383 kts | 234° |
| 2026-04-24 14:23 | 33.05434 | 71.83347 | 25822 ft | 396 kts | 234° |
| 2026-04-24 14:23 | 33.03674 | 71.80802 | 26156 ft | 400 kts | 234° |
| 2026-04-24 14:23 | 33.01902 | 71.78248 | 26591 ft | 401 kts | 234° |
| 2026-04-24 14:23 | 33.00121 | 71.75684 | 26989 ft | 404 kts | 234° |
| 2026-04-24 14:24 | 32.98320 | 71.73092 | 27368 ft | 407 kts | 234° |
| 2026-04-24 14:24 | 32.96504 | 71.70480 | 27754 ft | 409 kts | 234° |
| 2026-04-24 14:24 | 32.94686 | 71.67867 | 28137 ft | 411 kts | 234° |
| 2026-04-24 14:24 | 32.92857 | 71.65240 | 28501 ft | 413 kts | 234° |
| 2026-04-24 14:25 | 32.91035 | 71.62623 | 28820 ft | 416 kts | 234° |
| 2026-04-24 14:25 | 32.89178 | 71.59960 | 29174 ft | 418 kts | 234° |
| 2026-04-24 14:25 | 32.87316 | 71.57290 | 29507 ft | 421 kts | 234° |
| 2026-04-24 14:25 | 32.85433 | 71.54596 | 29887 ft | 421 kts | 234° |
| 2026-04-24 14:26 | 32.83559 | 71.51916 | 30240 ft | 422 kts | 234° |
| 2026-04-24 14:26 | 32.81684 | 71.49232 | 30499 ft | 425 kts | 234° |
| 2026-04-24 14:26 | 32.79787 | 71.46516 | 30736 ft | 427 kts | 234° |
| 2026-04-24 14:26 | 32.77889 | 71.43804 | 31057 ft | 428 kts | 234° |
| 2026-04-24 14:27 | 32.76629 | 71.42007 | 31303 ft | 427 kts | 234° |